createdAt,value
2022-08-14T00:00:06.856Z,6.50
2022-08-14T00:05:16.509Z,5.40
2022-08-14T00:10:50.377Z,6.22
2022-08-14T00:15:48.259Z,5.55
2022-08-14T00:20:51.879Z,6.25
2022-08-14T00:26:05.871Z,6.20
2022-08-14T00:31:09.850Z,6.60
2022-08-14T00:36:37.694Z,5.72
2022-08-14T00:41:39.189Z,6.25
2022-08-14T00:46:42.285Z,5.88
2022-08-14T00:51:45.546Z,6.10
2022-08-14T00:56:55.578Z,6.22
2022-08-14T01:02:01.543Z,6.82
2022-08-14T01:07:04.967Z,6.43
2022-08-14T01:12:13.362Z,7.70
2022-08-14T01:17:49.274Z,8.80
2022-08-14T01:22:55.002Z,8.80
2022-08-14T01:27:58.774Z,7.78
2022-08-14T01:33:02.897Z,7.38
2022-08-14T01:38:07.530Z,8.50
2022-08-14T01:43:15.715Z,7.40
2022-08-14T01:48:20.757Z,7.43
2022-08-14T01:53:25.608Z,6.93
2022-08-14T01:58:35.570Z,5.97
2022-08-14T02:03:58.820Z,5.50
2022-08-14T02:09:04.338Z,5.45
2022-08-14T02:14:31.141Z,6.07
2022-08-14T02:19:35.743Z,6.32
2022-08-14T02:24:45.238Z,6.40
2022-08-14T02:29:59.191Z,6.47
2022-08-14T02:35:06.855Z,6.10
2022-08-14T02:40:12.641Z,5.75
2022-08-14T02:45:15.506Z,6.75
2022-08-14T02:50:21.236Z,6.72
2022-08-14T02:55:33.009Z,5.95
2022-08-14T03:00:40.103Z,7.50
2022-08-14T03:05:43.311Z,6.88
2022-08-14T03:10:48.598Z,7.25
2022-08-14T03:15:55.833Z,7.55
2022-08-14T03:21:01.053Z,7.68
2022-08-14T03:26:07.124Z,8.07
2022-08-14T03:31:13.374Z,7.93
2022-08-14T03:37:51.892Z,8.52
2022-08-14T03:41:42.139Z,8.30
2022-08-14T03:46:54.585Z,8.32
2022-08-14T03:52:00.865Z,7.55
2022-08-14T03:57:06.031Z,7.07
2022-08-14T04:02:09.584Z,6.97
2022-08-14T04:07:32.907Z,7.28
2022-08-14T04:12:40.412Z,7.90
2022-08-14T04:17:43.895Z,8.48
2022-08-14T04:22:51.123Z,7.28
2022-08-14T04:28:02.211Z,7.88
2022-08-14T04:33:13.597Z,7.60
2022-08-14T04:38:40.695Z,7.47
2022-08-14T04:43:45.191Z,7.93
2022-08-14T04:48:51.401Z,8.55
2022-08-14T04:54:03.146Z,8.20
2022-08-14T04:59:10.261Z,8.43
2022-08-14T05:04:14.578Z,8.50
2022-08-14T05:09:23.602Z,8.27
2022-08-14T05:14:46.353Z,8.30
2022-08-14T05:21:04.310Z,8.52
2022-08-14T05:25:13.978Z,8.93
2022-08-14T05:30:20.015Z,7.75
2022-08-14T05:35:22.843Z,8.40
2022-08-14T05:40:26.918Z,9.18
2022-08-14T05:45:31.055Z,9.18
2022-08-14T05:50:35.018Z,10.90
2022-08-14T05:55:42.794Z,10.25
2022-08-14T06:00:49.920Z,10.30
2022-08-14T06:05:54.060Z,9.23
2022-08-14T06:11:02.999Z,10.05
2022-08-14T06:16:07.988Z,10.30
2022-08-14T06:21:13.573Z,9.07
2022-08-14T06:26:16.477Z,8.20
2022-08-14T06:31:25.037Z,8.60
2022-08-14T06:36:27.735Z,8.18
2022-08-14T06:41:35.975Z,7.85
2022-08-14T06:46:54.896Z,8.27
2022-08-14T06:51:57.679Z,6.10
2022-08-14T06:57:00.408Z,7.13
2022-08-14T07:02:22.082Z,6.95
2022-08-14T07:07:25.497Z,7.00
2022-08-14T07:12:52.231Z,7.20
2022-08-14T07:17:55.652Z,7.35
2022-08-14T07:23:07.718Z,7.32
2022-08-14T07:28:20.830Z,7.38
2022-08-14T07:33:29.151Z,7.30
2022-08-14T07:38:37.952Z,6.53
2022-08-14T07:43:41.933Z,6.82
2022-08-14T07:48:48.371Z,6.90
2022-08-14T07:53:56.782Z,6.68
2022-08-14T07:59:00.152Z,6.47
2022-08-14T08:04:09.162Z,6.95
2022-08-14T08:09:20.534Z,6.55
2022-08-14T08:14:26.075Z,6.40
2022-08-14T08:19:36.888Z,6.75
2022-08-14T08:24:43.249Z,6.22
2022-08-14T08:29:50.839Z,7.47
2022-08-14T08:34:55.283Z,6.95
2022-08-14T08:40:01.515Z,6.68
2022-08-14T08:45:05.391Z,6.22
2022-08-14T08:50:31.453Z,5.85
2022-08-14T08:55:35.532Z,5.43
2022-08-14T09:00:40.940Z,5.25
2022-08-14T09:05:57.788Z,5.60
2022-08-14T09:11:01.990Z,5.22
2022-08-14T09:16:18.515Z,5.40
2022-08-14T09:21:25.081Z,4.78
2022-08-14T09:26:34.893Z,5.10
2022-08-14T09:31:42.846Z,4.90
2022-08-14T09:37:24.658Z,4.60
2022-08-14T09:42:50.058Z,4.70
2022-08-14T09:47:56.084Z,5.07
2022-08-14T09:53:04.021Z,5.50
2022-08-14T09:58:19.476Z,4.63
2022-08-14T10:03:28.891Z,4.88
2022-08-14T10:08:42.053Z,4.82
2022-08-14T10:13:52.653Z,4.28
2022-08-14T10:19:07.242Z,4.88
2022-08-14T10:24:17.629Z,4.82
2022-08-14T10:29:32.409Z,4.78
2022-08-14T10:34:38.697Z,4.68
2022-08-14T10:40:01.714Z,3.95
2022-08-14T10:45:21.208Z,4.45
2022-08-14T10:50:35.791Z,3.72
2022-08-14T10:55:45.432Z,3.92
2022-08-14T11:00:56.870Z,3.65
2022-08-14T11:06:01.154Z,4.05
2022-08-14T11:11:07.090Z,4.35
2022-08-14T11:16:11.900Z,3.80
2022-08-14T11:21:19.045Z,4.00
2022-08-14T11:26:30.173Z,3.58
2022-08-14T11:31:38.714Z,4.97
2022-08-14T11:37:02.313Z,3.65
2022-08-14T11:42:57.422Z,4.20
2022-08-14T11:47:35.129Z,4.32
2022-08-14T11:52:50.667Z,3.83
2022-08-14T11:58:03.786Z,4.25
2022-08-14T12:03:09.481Z,4.32
2022-08-14T12:08:14.707Z,4.32
2022-08-14T12:13:32.250Z,3.92
2022-08-14T12:18:39.869Z,4.32
2022-08-14T12:23:42.702Z,3.45
2022-08-14T12:28:59.654Z,3.90
2022-08-14T12:34:10.160Z,3.58
2022-08-14T12:39:19.698Z,3.83
2022-08-14T12:44:32.296Z,3.70
2022-08-14T12:49:35.629Z,3.90
2022-08-14T12:54:43.581Z,3.92
2022-08-14T13:00:22.728Z,3.80
2022-08-14T13:05:29.053Z,3.85
2022-08-14T13:10:52.062Z,3.95
2022-08-14T13:15:57.596Z,4.10
2022-08-14T13:21:01.923Z,3.60
2022-08-14T13:26:05.479Z,3.80
2022-08-14T13:31:11.784Z,3.95
2022-08-14T13:36:24.550Z,3.55
2022-08-14T13:41:38.500Z,3.70
2022-08-14T13:46:44.405Z,3.70
2022-08-14T13:51:50.496Z,3.75
2022-08-14T13:56:55.898Z,3.83
2022-08-14T14:02:06.003Z,3.45
2022-08-14T14:07:13.214Z,3.85
2022-08-14T14:12:37.664Z,4.22
2022-08-14T14:17:44.040Z,3.92
2022-08-14T14:23:02.660Z,4.00
2022-08-14T14:28:06.110Z,4.00
2022-08-14T14:33:42.369Z,4.22
2022-08-14T14:38:42.136Z,3.92
2022-08-14T14:43:51.651Z,3.70
2022-08-14T14:48:56.323Z,3.75
2022-08-14T14:53:59.271Z,4.05
2022-08-14T14:59:02.411Z,3.72
2022-08-14T15:04:19.986Z,4.10
2022-08-14T15:09:24.019Z,3.88
2022-08-14T15:14:55.460Z,3.65
2022-08-14T15:19:56.242Z,3.83
2022-08-14T15:24:59.929Z,4.60
2022-08-14T15:30:04.086Z,3.53
2022-08-14T15:35:09.119Z,3.85
2022-08-14T15:40:22.186Z,3.50
2022-08-14T15:45:25.522Z,3.97
2022-08-14T15:50:31.438Z,4.13
2022-08-14T15:55:34.203Z,4.20
2022-08-14T16:00:55.160Z,4.18
2022-08-14T16:05:59.299Z,4.05
2022-08-14T16:11:04.729Z,4.30
2022-08-14T16:16:34.473Z,4.03
2022-08-14T16:21:37.547Z,3.80
2022-08-14T16:26:43.166Z,4.60
2022-08-14T16:31:54.572Z,3.85
2022-08-14T16:36:58.871Z,4.20
2022-08-14T16:42:01.906Z,3.67
2022-08-14T16:47:26.026Z,3.55
2022-08-14T16:52:44.295Z,4.03
2022-08-14T16:57:50.070Z,3.28
2022-08-14T17:03:00.886Z,3.95
2022-08-14T17:08:41.519Z,4.10
2022-08-14T17:13:57.784Z,3.83
2022-08-14T17:19:01.739Z,4.20
2022-08-14T17:24:58.365Z,4.22
2022-08-14T17:29:44.645Z,4.20
2022-08-14T17:35:01.930Z,4.50
2022-08-14T17:40:15.382Z,4.05
2022-08-14T17:45:27.042Z,4.13
2022-08-14T17:51:00.593Z,4.22
2022-08-14T17:56:06.021Z,4.28
2022-08-14T18:01:08.954Z,4.25
2022-08-14T18:06:38.334Z,4.15
2022-08-14T18:11:45.766Z,4.25
2022-08-14T18:16:51.953Z,4.00
2022-08-14T18:21:57.195Z,3.95
2022-08-14T18:27:09.093Z,4.05
2022-08-14T18:32:39.562Z,4.25
2022-08-14T18:37:55.719Z,4.13
2022-08-14T18:43:03.526Z,3.85
2022-08-14T18:48:33.214Z,3.83
2022-08-14T18:53:55.727Z,3.95
2022-08-14T18:59:00.306Z,4.25
2022-08-14T19:04:03.966Z,4.07
2022-08-14T19:09:07.423Z,4.40
2022-08-14T19:14:14.322Z,4.22
2022-08-14T19:19:19.201Z,4.53
2022-08-14T19:24:27.754Z,5.07
2022-08-14T19:29:37.920Z,5.63
2022-08-14T19:34:52.281Z,5.38
2022-08-14T19:39:56.712Z,5.18
2022-08-14T19:45:01.046Z,4.13
2022-08-14T19:50:08.022Z,4.43
2022-08-14T19:55:34.578Z,4.20
2022-08-14T20:00:52.123Z,4.85
2022-08-14T20:06:03.157Z,4.47
2022-08-14T20:12:00.575Z,4.25
2022-08-14T20:16:51.060Z,4.53
2022-08-14T20:22:04.621Z,4.80
2022-08-14T20:27:33.487Z,4.15
2022-08-14T20:32:41.031Z,4.75
2022-08-14T20:37:48.164Z,4.70
2022-08-14T20:43:20.432Z,5.20
2022-08-14T20:48:51.386Z,4.45
2022-08-14T20:53:59.478Z,4.35
2022-08-14T20:59:15.613Z,4.75
2022-08-14T21:04:29.191Z,4.75
2022-08-14T21:10:04.631Z,4.22
2022-08-14T21:14:55.607Z,4.95
2022-08-14T21:20:26.247Z,4.95
2022-08-14T21:25:26.006Z,5.00
2022-08-14T21:30:51.211Z,5.03
2022-08-14T21:36:00.561Z,4.90
2022-08-14T21:41:42.935Z,5.32
2022-08-14T21:46:47.794Z,5.40
2022-08-14T21:51:58.824Z,5.13
2022-08-14T21:57:13.651Z,5.50
2022-08-14T22:02:32.497Z,5.60
2022-08-14T22:07:38.882Z,4.68
2022-08-14T22:12:57.385Z,4.82
2022-08-14T22:18:04.100Z,5.72
2022-08-14T22:23:12.561Z,5.32
2022-08-14T22:28:21.601Z,5.05
2022-08-14T22:33:31.133Z,5.15
2022-08-14T22:38:38.965Z,4.82
2022-08-14T22:43:55.651Z,5.50
2022-08-14T22:48:59.002Z,5.35
2022-08-14T22:54:03.104Z,5.03
2022-08-14T22:59:09.832Z,5.35
2022-08-14T23:04:34.969Z,5.05
2022-08-14T23:09:56.275Z,5.32
2022-08-14T23:15:00.969Z,5.35
2022-08-14T23:20:18.526Z,5.70
2022-08-14T23:25:58.517Z,5.50
2022-08-14T23:30:49.877Z,5.30
2022-08-14T23:35:58.641Z,5.68
2022-08-14T23:41:14.490Z,5.50
2022-08-14T23:46:20.903Z,5.75
2022-08-14T23:51:23.627Z,5.35
2022-08-14T23:56:32.189Z,5.65
